createdAt,value
2018-06-25T00:01:48.872Z,101718.37
2018-06-25T00:04:14.876Z,101717.78
2018-06-25T00:06:40.863Z,101712.71
2018-06-25T00:09:06.814Z,101706.90
2018-06-25T00:11:32.830Z,101700.12
2018-06-25T00:13:58.787Z,101703.64
2018-06-25T00:16:24.772Z,101706.47
2018-06-25T00:18:50.816Z,101710.04
2018-06-25T00:21:16.788Z,101702.56
2018-06-25T00:23:42.776Z,101696.31
2018-06-25T00:26:08.763Z,101706.02
2018-06-25T00:28:34.704Z,101708.07
2018-06-25T00:31:00.678Z,101714.94
2018-06-25T00:33:26.636Z,101707.23
2018-06-25T00:35:52.601Z,101707.11
2018-06-25T00:38:18.570Z,101711.30
2018-06-25T00:40:44.564Z,101718.81
2018-06-25T00:43:10.547Z,101720.88
2018-06-25T00:45:36.510Z,101717.61
2018-06-25T00:48:02.549Z,101709.61
2018-06-25T00:50:28.519Z,101705.42
2018-06-25T00:52:54.495Z,101708.78
2018-06-25T00:55:20.491Z,101716.72
2018-06-25T00:57:46.461Z,101718.44
2018-06-25T01:00:12.460Z,101717.34
2018-06-25T01:02:38.458Z,101718.05
2018-06-25T01:05:04.417Z,101711.83
2018-06-25T01:07:30.381Z,101709.95
2018-06-25T01:09:56.346Z,101716.28
2018-06-25T01:12:22.302Z,101717.70
2018-06-25T01:14:48.278Z,101719.52
2018-06-25T01:17:14.256Z,101713.14
2018-06-25T01:19:40.237Z,101707.95
2018-06-25T01:22:06.208Z,101703.27
2018-06-25T01:24:32.183Z,101702.93
2018-06-25T01:26:58.150Z,101704.77
2018-06-25T01:29:24.121Z,101699.63
2018-06-25T01:31:50.151Z,101707.14
2018-06-25T01:34:16.111Z,101716.41
2018-06-25T01:36:42.065Z,101716.01
2018-06-25T01:39:08.065Z,101719.33
2018-06-25T01:41:34.028Z,101719.77
2018-06-25T01:44:00.005Z,101724.22
2018-06-25T01:46:25.976Z,101725.77
2018-06-25T01:48:51.954Z,101727.64
2018-06-25T01:51:17.941Z,101725.21
2018-06-25T01:53:43.926Z,101721.24
2018-06-25T01:56:09.906Z,101712.09
2018-06-25T01:58:35.871Z,101714.63
2018-06-25T02:01:01.821Z,101714.56
2018-06-25T02:03:29.831Z,101714.25
2018-06-25T02:05:55.809Z,101715.85
2018-06-25T02:08:21.762Z,101720.31
2018-06-25T02:10:47.736Z,101721.05
2018-06-25T02:13:13.716Z,101712.69
2018-06-25T02:15:39.764Z,101711.11
2018-06-25T02:18:05.910Z,101708.95
2018-06-25T02:20:31.882Z,101715.63
2018-06-25T02:22:57.845Z,101713.76
2018-06-25T02:25:23.811Z,101711.76
2018-06-25T02:27:49.793Z,101717.94
2018-06-25T02:30:15.779Z,101715.91
2018-06-25T02:32:41.739Z,101721.36
2018-06-25T02:37:41.211Z,101721.24
2018-06-25T02:40:07.219Z,101716.68
2018-06-25T02:42:33.201Z,101716.84
2018-06-25T02:44:59.157Z,101721.91
2018-06-25T02:47:25.134Z,101716.72
2018-06-25T02:49:51.130Z,101718.37
2018-06-25T02:52:17.127Z,101715.63
2018-06-25T02:54:43.134Z,101715.95
2018-06-25T02:57:09.151Z,101715.09
2018-06-25T02:59:35.143Z,101719.42
2018-06-25T03:02:01.140Z,101720.38
2018-06-25T03:04:27.126Z,101726.31
2018-06-25T03:06:54.172Z,101722.19
2018-06-25T03:09:20.236Z,101720.80
2018-06-25T03:11:46.253Z,101727.92
2018-06-25T03:14:12.262Z,101718.16
2018-06-25T03:16:38.284Z,101720.31
2018-06-25T03:19:04.237Z,101727.76
2018-06-25T03:21:30.217Z,101721.97
2018-06-25T03:23:56.216Z,101723.30
2018-06-25T03:26:22.205Z,101726.61
2018-06-25T03:28:48.182Z,101728.20
2018-06-25T03:31:14.158Z,101729.58
2018-06-25T03:33:40.161Z,101727.76
2018-06-25T03:36:06.129Z,101732.34
2018-06-25T03:38:32.172Z,101731.12
2018-06-25T03:40:58.096Z,101727.36
2018-06-25T03:45:59.636Z,101734.55
2018-06-25T03:48:25.655Z,101737.52
2018-06-25T03:50:51.625Z,101735.36
2018-06-25T03:53:18.646Z,101738.95
2018-06-25T03:55:44.609Z,101743.42
2018-06-25T03:58:10.589Z,101745.30
2018-06-25T04:00:36.567Z,101746.06
2018-06-25T04:03:02.664Z,101743.52
2018-06-25T04:05:28.620Z,101739.02
2018-06-25T04:07:54.622Z,101736.53
2018-06-25T04:10:20.653Z,101745.30
2018-06-25T04:12:46.642Z,101744.34
2018-06-25T04:15:12.744Z,101750.58
2018-06-25T04:17:38.723Z,101745.62
2018-06-25T04:20:04.718Z,101747.12
2018-06-25T04:22:30.722Z,101750.38
2018-06-25T04:24:56.681Z,101755.82
2018-06-25T04:27:22.652Z,101754.55
2018-06-25T04:29:49.251Z,101757.68
2018-06-25T04:32:15.224Z,101762.60
2018-06-25T04:34:41.200Z,101764.52
2018-06-25T04:37:09.188Z,101763.83
2018-06-25T04:39:35.187Z,101763.22
2018-06-25T04:42:01.178Z,101764.16
2018-06-25T04:44:27.191Z,101767.58
2018-06-25T04:46:53.205Z,101764.81
2018-06-25T04:49:19.159Z,101761.99
2018-06-25T04:51:45.133Z,101764.91
2018-06-25T04:54:11.098Z,101766.02
2018-06-25T04:56:37.076Z,101769.34
2018-06-25T04:59:03.200Z,101773.52
2018-06-25T05:01:29.172Z,101782.58
2018-06-25T05:03:55.179Z,101783.17
2018-06-25T05:06:21.179Z,101782.34
2018-06-25T05:08:47.216Z,101781.03
2018-06-25T05:11:13.121Z,101781.52
2018-06-25T05:13:39.082Z,101788.58
2018-06-25T05:16:05.061Z,101779.08
2018-06-25T05:18:31.048Z,101781.03
2018-06-25T05:20:57.041Z,101783.44
2018-06-25T05:23:23.006Z,101785.22
2018-06-25T05:25:49.001Z,101790.39
2018-06-25T05:28:14.971Z,101789.69
2018-06-25T05:30:40.977Z,101784.33
2018-06-25T05:33:06.934Z,101785.87
2018-06-25T05:35:36.871Z,101788.29
2018-06-25T05:38:02.951Z,101802.70
2018-06-25T05:40:28.927Z,101796.91
2018-06-25T05:42:54.913Z,101800.81
2018-06-25T05:45:20.904Z,101803.19
2018-06-25T05:47:46.869Z,101806.87
2018-06-25T05:50:12.851Z,101809.53
2018-06-25T05:52:38.900Z,101815.05
2018-06-25T05:55:04.879Z,101814.83
2018-06-25T05:57:30.831Z,101815.22
2018-06-25T05:59:56.799Z,101819.56
2018-06-25T06:02:22.752Z,101820.05
2018-06-25T06:04:48.742Z,101820.00
2018-06-25T06:07:14.714Z,101820.50
2018-06-25T06:09:40.761Z,101823.60
2018-06-25T06:12:06.745Z,101819.41
2018-06-25T06:14:32.735Z,101824.70
2018-06-25T06:16:58.783Z,101824.31
2018-06-25T06:19:24.781Z,101838.92
2018-06-25T06:21:50.839Z,101834.83
2018-06-25T06:24:16.797Z,101840.63
2018-06-25T06:26:42.776Z,101839.36
2018-06-25T06:29:08.773Z,101841.23
2018-06-25T06:31:34.749Z,101840.36
2018-06-25T06:34:00.809Z,101837.48
2018-06-25T06:36:26.813Z,101843.16
2018-06-25T06:38:52.788Z,101840.51
2018-06-25T06:41:18.837Z,101846.10
2018-06-25T06:43:44.846Z,101848.06
2018-06-25T06:46:10.829Z,101850.27
2018-06-25T06:48:36.813Z,101854.45
2018-06-25T06:51:02.811Z,101852.20
2018-06-25T06:53:28.788Z,101852.16
2018-06-25T06:55:54.762Z,101857.78
2018-06-25T06:58:22.877Z,101859.87
2018-06-25T07:00:48.835Z,101858.50
2018-06-25T07:03:16.912Z,101857.28
2018-06-25T07:05:46.524Z,101858.66
2018-06-25T07:08:14.616Z,101862.46
2018-06-25T07:10:40.633Z,101862.86
2018-06-25T07:13:06.613Z,101867.99
2018-06-25T07:15:32.587Z,101870.68
2018-06-25T07:17:59.647Z,101864.89
2018-06-25T07:20:26.692Z,101864.17
2018-06-25T07:22:52.671Z,101866.37
2018-06-25T07:25:18.648Z,101861.91
2018-06-25T07:27:44.633Z,101860.31
2018-06-25T07:30:10.621Z,101858.72
2018-06-25T07:32:36.592Z,101861.38
2018-06-25T07:35:02.579Z,101868.97
2018-06-25T07:37:28.565Z,101858.95
2018-06-25T07:39:54.563Z,101862.91
2018-06-25T07:42:20.559Z,101865.84
2018-06-25T07:44:46.532Z,101868.59
2018-06-25T07:49:44.566Z,101876.80
2018-06-25T07:52:10.554Z,101880.19
2018-06-25T07:54:36.531Z,101871.68
2018-06-25T07:57:02.507Z,101878.78
2018-06-25T07:59:28.462Z,101879.29
2018-06-25T08:01:54.468Z,101884.31
2018-06-25T08:04:21.497Z,101878.56
2018-06-25T08:06:47.463Z,101883.64
2018-06-25T08:09:13.442Z,101876.42
2018-06-25T08:11:39.420Z,101880.01
2018-06-25T08:14:05.432Z,101883.48
2018-06-25T08:16:31.432Z,101892.14
2018-06-25T08:18:57.395Z,101889.27
2018-06-25T08:21:23.371Z,101894.30
2018-06-25T08:23:49.352Z,101893.12
2018-06-25T08:26:15.318Z,101892.63
2018-06-25T08:28:41.293Z,101894.31
2018-06-25T08:31:07.266Z,101893.85
2018-06-25T08:33:33.253Z,101897.11
2018-06-25T08:35:59.215Z,101898.53
2018-06-25T08:38:25.171Z,101896.34
2018-06-25T08:40:51.226Z,101901.06
2018-06-25T08:43:17.183Z,101901.73
2018-06-25T08:45:43.145Z,101910.85
2018-06-25T08:48:09.131Z,101908.37
2018-06-25T08:50:35.100Z,101906.44
2018-06-25T08:53:01.064Z,101913.09
2018-06-25T08:55:27.056Z,101916.64
2018-06-25T08:57:53.050Z,101912.83
2018-06-25T09:00:19.061Z,101918.95
2018-06-25T09:02:45.021Z,101918.34
2018-06-25T09:05:10.996Z,101913.66
2018-06-25T09:07:40.398Z,101923.69
2018-06-25T09:10:06.373Z,101919.98
2018-06-25T09:12:32.333Z,101922.02
2018-06-25T09:14:58.301Z,101918.51
2018-06-25T09:17:24.256Z,101916.96
2018-06-25T09:19:50.244Z,101918.39
2018-06-25T09:22:16.221Z,101924.03
2018-06-25T09:24:42.181Z,101922.63
2018-06-25T09:27:08.162Z,101923.58
2018-06-25T09:29:34.130Z,101922.25
2018-06-25T09:32:00.112Z,101921.61
2018-06-25T09:34:26.092Z,101929.81
2018-06-25T09:36:53.055Z,101934.53
2018-06-25T09:39:19.019Z,101930.34
2018-06-25T09:41:45.221Z,101935.33
2018-06-25T09:44:10.991Z,101934.87
2018-06-25T09:46:36.960Z,101934.77
2018-06-25T09:49:02.936Z,101934.39
2018-06-25T09:51:28.935Z,101932.20
2018-06-25T09:53:54.889Z,101927.84
2018-06-25T09:56:20.897Z,101926.06
2018-06-25T09:58:46.879Z,101927.84
2018-06-25T10:01:12.841Z,101934.12
2018-06-25T10:03:38.812Z,101930.48
2018-06-25T10:06:04.808Z,101931.13
2018-06-25T10:08:30.774Z,101931.97
2018-06-25T10:10:56.796Z,101924.14
2018-06-25T10:13:22.771Z,101928.29
2018-06-25T10:15:52.976Z,101929.55
2018-06-25T10:18:18.954Z,101925.13
2018-06-25T10:20:44.937Z,101923.58
2018-06-25T10:23:10.927Z,101926.59
2018-06-25T10:25:36.996Z,101928.64
2018-06-25T10:28:02.954Z,101924.44
2018-06-25T10:30:28.918Z,101919.45
2018-06-25T10:32:54.921Z,101921.00
2018-06-25T10:35:20.918Z,101922.20
2018-06-25T10:37:46.907Z,101923.53
2018-06-25T10:40:12.866Z,101921.22
2018-06-25T10:42:38.979Z,101922.31
2018-06-25T10:45:04.919Z,101922.92
2018-06-25T10:47:30.889Z,101938.80
2018-06-25T10:49:56.864Z,101934.45
2018-06-25T10:52:22.829Z,101930.98
2018-06-25T10:54:48.828Z,101938.09
2018-06-25T10:57:14.838Z,101932.80
2018-06-25T10:59:41.033Z,101936.27
2018-06-25T11:02:06.821Z,101934.61
2018-06-25T11:04:32.849Z,101930.27
2018-06-25T11:06:58.842Z,101934.83
2018-06-25T11:09:24.828Z,101935.66
2018-06-25T11:11:50.817Z,101927.50
2018-06-25T11:14:16.803Z,101924.84
2018-06-25T11:16:42.765Z,101922.31
2018-06-25T11:19:08.830Z,101925.64
2018-06-25T11:21:34.780Z,101927.11
2018-06-25T11:24:00.776Z,101929.98
2018-06-25T11:26:26.756Z,101927.23
2018-06-25T11:28:52.709Z,101928.52
2018-06-25T11:31:18.674Z,101933.58
2018-06-25T11:33:44.688Z,101929.47
2018-06-25T11:36:10.697Z,101925.97
2018-06-25T11:38:36.672Z,101927.19
2018-06-25T11:41:02.652Z,101927.72
2018-06-25T11:43:28.601Z,101928.82
2018-06-25T11:45:54.607Z,101930.27
2018-06-25T11:48:20.583Z,101937.33
2018-06-25T11:50:46.548Z,101946.97
2018-06-25T11:53:12.544Z,101940.84
2018-06-25T11:55:38.494Z,101941.00
2018-06-25T11:58:04.455Z,101944.22
2018-06-25T12:00:30.423Z,101942.51
2018-06-25T12:02:56.480Z,101943.95
2018-06-25T12:05:22.373Z,101936.01
2018-06-25T12:07:48.354Z,101943.72
2018-06-25T12:10:14.337Z,101935.63
2018-06-25T12:12:40.306Z,101937.66
2018-06-25T12:15:06.297Z,101932.59
2018-06-25T12:17:32.324Z,101935.73
2018-06-25T12:19:58.265Z,101933.47
2018-06-25T12:22:24.262Z,101927.84
2018-06-25T12:24:50.243Z,101938.42
2018-06-25T12:27:16.192Z,101934.08
2018-06-25T12:29:42.176Z,101926.74
2018-06-25T12:32:08.146Z,101931.09
2018-06-25T12:34:34.144Z,101925.08
2018-06-25T12:37:00.115Z,101924.91
2018-06-25T12:39:26.079Z,101929.65
2018-06-25T12:41:52.039Z,101922.70
2018-06-25T12:44:18.009Z,101926.34
2018-06-25T12:46:44.031Z,101924.56
2018-06-25T12:49:10.975Z,101920.18
2018-06-25T12:51:36.965Z,101930.20
2018-06-25T12:54:02.930Z,101927.17
2018-06-25T12:56:28.897Z,101925.11
2018-06-25T12:58:54.850Z,101924.17
2018-06-25T13:01:20.865Z,101933.69
2018-06-25T13:03:46.815Z,101927.41
2018-06-25T13:06:12.823Z,101928.13
2018-06-25T13:08:38.807Z,101936.78
2018-06-25T13:11:04.783Z,101935.23
2018-06-25T13:13:30.791Z,101934.28
2018-06-25T13:15:56.764Z,101931.48
2018-06-25T13:18:22.762Z,101933.53
2018-06-25T13:20:48.704Z,101932.20
2018-06-25T13:23:14.688Z,101928.62
2018-06-25T13:25:40.701Z,101930.78
2018-06-25T13:28:06.660Z,101933.64
2018-06-25T13:30:32.643Z,101924.87
2018-06-25T13:32:58.616Z,101927.67
2018-06-25T13:35:24.608Z,101923.55
2018-06-25T13:37:50.592Z,101930.66
2018-06-25T13:40:16.582Z,101925.02
2018-06-25T13:42:42.552Z,101920.78
2018-06-25T13:45:08.508Z,101925.09
2018-06-25T13:47:34.476Z,101922.70
2018-06-25T13:50:00.468Z,101919.34
2018-06-25T13:52:26.443Z,101919.09
2018-06-25T13:54:52.438Z,101915.47
2018-06-25T13:57:18.418Z,101910.93
2018-06-25T13:59:44.381Z,101907.31
2018-06-25T14:02:10.369Z,101905.62
2018-06-25T14:04:36.378Z,101901.26
2018-06-25T14:07:03.340Z,101898.86
2018-06-25T14:09:29.312Z,101903.21
2018-06-25T14:11:55.310Z,101902.50
2018-06-25T14:14:21.280Z,101904.52
2018-06-25T14:16:47.360Z,101902.24
2018-06-25T14:19:13.283Z,101898.76
2018-06-25T14:21:39.272Z,101894.17
2018-06-25T14:24:05.246Z,101892.48
2018-06-25T14:26:31.217Z,101891.42
2018-06-25T14:28:57.179Z,101894.17
2018-06-25T14:31:23.147Z,101890.20
2018-06-25T14:33:49.138Z,101887.44
2018-06-25T14:36:15.090Z,101888.28
2018-06-25T14:38:41.085Z,101891.29
2018-06-25T14:41:07.058Z,101883.95
2018-06-25T14:43:33.031Z,101878.66
2018-06-25T14:45:59.048Z,101877.08
2018-06-25T14:48:25.123Z,101882.14
2018-06-25T14:50:51.149Z,101875.41
2018-06-25T14:53:17.107Z,101882.97
2018-06-25T14:55:43.076Z,101886.11
2018-06-25T14:58:09.078Z,101878.75
2018-06-25T15:00:35.089Z,101886.95
2018-06-25T15:03:01.063Z,101881.03
2018-06-25T15:05:27.027Z,101880.94
2018-06-25T15:07:53.013Z,101868.63
2018-06-25T15:10:18.984Z,101871.42
2018-06-25T15:12:44.989Z,101861.66
2018-06-25T15:15:10.969Z,101859.84
2018-06-25T15:17:36.950Z,101855.75
2018-06-25T15:20:02.987Z,101852.62
2018-06-25T15:22:28.948Z,101848.98
2018-06-25T15:24:54.962Z,101854.66
2018-06-25T15:27:20.916Z,101847.66
2018-06-25T15:29:47.104Z,101846.00
2018-06-25T15:32:13.093Z,101847.20
2018-06-25T15:34:39.091Z,101840.42
2018-06-25T15:37:05.053Z,101840.80
2018-06-25T15:39:31.100Z,101843.56
2018-06-25T15:41:57.082Z,101835.50
2018-06-25T15:44:23.081Z,101837.66
2018-06-25T15:46:49.153Z,101834.30
2018-06-25T15:49:15.144Z,101835.95
2018-06-25T15:51:41.140Z,101837.44
2018-06-25T15:54:07.134Z,101832.75
2018-06-25T15:56:33.116Z,101844.06
2018-06-25T15:59:00.127Z,101847.41
2018-06-25T16:01:26.128Z,101849.30
2018-06-25T16:03:52.148Z,101849.42
2018-06-25T16:06:18.146Z,101843.73
2018-06-25T16:08:44.122Z,101838.30
2018-06-25T16:11:10.129Z,101843.87
2018-06-25T16:13:36.097Z,101836.17
2018-06-25T16:16:02.086Z,101840.37
2018-06-25T16:18:28.071Z,101831.28
2018-06-25T16:20:55.932Z,101830.64
2018-06-25T16:23:22.682Z,101828.61
2018-06-25T16:25:49.222Z,101830.36
2018-06-25T16:28:15.762Z,101829.34
2018-06-25T16:30:42.303Z,101833.56
2018-06-25T16:33:08.287Z,101831.62
2018-06-25T16:35:34.265Z,101834.86
2018-06-25T16:38:00.221Z,101834.83
2018-06-25T16:40:26.215Z,101826.78
2018-06-25T16:45:18.049Z,101829.55
2018-06-25T16:50:09.787Z,101832.30
2018-06-25T16:52:35.775Z,101827.62
2018-06-25T16:55:01.741Z,101820.25
2018-06-25T16:57:27.730Z,101825.06
2018-06-25T16:59:53.745Z,101820.93
2018-06-25T17:02:19.743Z,101819.11
2018-06-25T17:07:11.533Z,101816.47
2018-06-25T17:09:37.531Z,101813.05
2018-06-25T17:12:03.512Z,101820.93
2018-06-25T17:14:29.566Z,101821.86
2018-06-25T17:16:55.540Z,101809.17
2018-06-25T17:19:21.568Z,101812.16
2018-06-25T17:21:48.612Z,101818.12
2018-06-25T17:24:14.607Z,101812.16
2018-06-25T17:26:40.587Z,101817.61
2018-06-25T17:29:06.584Z,101814.38
2018-06-25T17:31:37.232Z,101811.41
2018-06-25T17:34:03.211Z,101820.20
2018-06-25T17:36:29.288Z,101814.99
2018-06-25T17:38:55.276Z,101814.06
2018-06-25T17:41:21.247Z,101811.23
2018-06-25T17:43:52.912Z,101811.78
2018-06-25T17:46:18.890Z,101805.94
2018-06-25T17:48:44.859Z,101803.41
2018-06-25T17:51:10.866Z,101799.44
2018-06-25T17:53:36.951Z,101801.12
2018-06-25T17:56:02.932Z,101805.10
2018-06-25T17:58:28.928Z,101801.78
2018-06-25T18:00:54.893Z,101801.22
2018-06-25T18:03:20.889Z,101801.25
2018-06-25T18:05:46.872Z,101798.94
2018-06-25T18:08:12.845Z,101803.81
2018-06-25T18:10:38.827Z,101806.12
2018-06-25T18:13:04.836Z,101808.58
2018-06-25T18:15:30.796Z,101810.38
2018-06-25T18:17:56.805Z,101806.42
2018-06-25T18:20:22.778Z,101807.66
2018-06-25T18:22:48.752Z,101811.36
2018-06-25T18:25:14.789Z,101806.48
2018-06-25T18:27:40.766Z,101811.02
2018-06-25T18:30:06.732Z,101809.53
2018-06-25T18:32:32.796Z,101815.42
2018-06-25T18:34:58.790Z,101810.92
2018-06-25T18:37:24.772Z,101810.16
2018-06-25T18:39:50.724Z,101811.27
2018-06-25T18:42:16.732Z,101804.58
2018-06-25T18:44:42.792Z,101810.22
2018-06-25T18:47:08.741Z,101807.94
2018-06-25T18:49:34.723Z,101808.46
2018-06-25T18:52:00.720Z,101807.26
2018-06-25T18:54:26.704Z,101807.45
2018-06-25T18:56:52.751Z,101812.19
2018-06-25T18:59:18.724Z,101805.01
2018-06-25T19:01:44.687Z,101803.69
2018-06-25T19:04:10.655Z,101803.09
2018-06-25T19:06:36.645Z,101806.24
2018-06-25T19:09:02.665Z,101805.84
2018-06-25T19:11:28.634Z,101811.48
2018-06-25T19:13:54.718Z,101809.72
2018-06-25T19:16:20.677Z,101815.14
2018-06-25T19:18:46.677Z,101816.80
2018-06-25T19:21:12.631Z,101818.50
2018-06-25T19:23:38.657Z,101815.88
2018-06-25T19:26:04.618Z,101818.34
2018-06-25T19:28:30.592Z,101823.06
2018-06-25T19:30:56.569Z,101815.36
2018-06-25T19:33:22.532Z,101819.84
2018-06-25T19:35:48.541Z,101822.94
2018-06-25T19:38:14.519Z,101827.62
2018-06-25T19:40:40.507Z,101828.64
2018-06-25T19:45:34.346Z,101829.43
2018-06-25T19:48:00.337Z,101834.79
2018-06-25T19:50:26.328Z,101836.29
2018-06-25T19:52:52.318Z,101840.26
2018-06-25T19:55:18.288Z,101842.91
2018-06-25T19:57:44.268Z,101843.00
2018-06-25T20:00:10.225Z,101843.25
2018-06-25T20:02:36.240Z,101845.50
2018-06-25T20:05:02.226Z,101846.27
2018-06-25T20:07:28.249Z,101846.73
2018-06-25T20:09:54.217Z,101850.36
2018-06-25T20:12:20.189Z,101858.94
2018-06-25T20:14:46.275Z,101850.24
2018-06-25T20:17:15.416Z,101857.16
2018-06-25T20:19:41.475Z,101852.78
2018-06-25T20:22:07.413Z,101852.50
2018-06-25T20:24:33.369Z,101861.30
2018-06-25T20:26:59.421Z,101858.19
2018-06-25T20:29:25.383Z,101868.30
2018-06-25T20:31:51.345Z,101867.10
2018-06-25T20:34:17.310Z,101863.13
2018-06-25T20:36:43.297Z,101860.95
2018-06-25T20:39:09.315Z,101865.05
2018-06-25T20:41:35.280Z,101868.90
2018-06-25T20:44:01.258Z,101862.72
2018-06-25T20:48:53.095Z,101872.09
2018-06-25T20:51:21.150Z,101868.95
2018-06-25T20:53:47.132Z,101873.40
2018-06-25T20:56:13.122Z,101873.91
2018-06-25T20:58:39.071Z,101871.32
2018-06-25T21:01:05.042Z,101872.09
2018-06-25T21:03:31.059Z,101873.04
2018-06-25T21:05:57.045Z,101881.14
2018-06-25T21:08:23.006Z,101873.26
2018-06-25T21:10:48.960Z,101874.14
2018-06-25T21:13:14.950Z,101881.39
2018-06-25T21:15:40.934Z,101877.92
2018-06-25T21:18:06.926Z,101884.30
2018-06-25T21:20:38.003Z,101880.77
2018-06-25T21:25:35.786Z,101872.82
2018-06-25T21:28:03.765Z,101867.08
2018-06-25T21:30:29.731Z,101866.77
2018-06-25T21:32:55.697Z,101874.20
2018-06-25T21:35:21.657Z,101868.77
2018-06-25T21:37:47.629Z,101870.73
2018-06-25T21:40:13.604Z,101874.22
2018-06-25T21:42:40.663Z,101877.74
2018-06-25T21:45:07.691Z,101875.31
2018-06-25T21:47:33.672Z,101881.34
2018-06-25T21:49:59.629Z,101878.42
2018-06-25T21:52:30.493Z,101883.42
2018-06-25T21:54:56.489Z,101884.53
2018-06-25T21:57:22.445Z,101875.83
2018-06-25T21:59:48.429Z,101872.84
2018-06-25T22:02:14.408Z,101876.92
2018-06-25T22:04:40.474Z,101880.06
2018-06-25T22:07:06.459Z,101870.04
2018-06-25T22:09:32.438Z,101874.37
2018-06-25T22:11:58.419Z,101877.30
2018-06-25T22:14:24.409Z,101874.28
2018-06-25T22:16:50.420Z,101877.42
2018-06-25T22:19:16.369Z,101880.41
2018-06-25T22:21:42.343Z,101881.84
2018-06-25T22:24:08.399Z,101883.55
2018-06-25T22:26:34.388Z,101886.91
2018-06-25T22:29:00.588Z,101885.47
2018-06-25T22:31:28.605Z,101887.40
2018-06-25T22:33:54.589Z,101885.09
2018-06-25T22:36:20.543Z,101883.05
2018-06-25T22:38:46.527Z,101886.14
2018-06-25T22:41:12.492Z,101888.90
2018-06-25T22:43:38.487Z,101887.13
2018-06-25T22:46:04.475Z,101892.47
2018-06-25T22:48:30.453Z,101891.76
2018-06-25T22:50:56.442Z,101890.82
2018-06-25T22:53:22.394Z,101891.05
2018-06-25T22:55:48.353Z,101891.27
2018-06-25T22:58:14.368Z,101890.44
2018-06-25T23:00:40.339Z,101889.94
2018-06-25T23:03:06.341Z,101885.75
2018-06-25T23:05:32.308Z,101896.39
2018-06-25T23:07:58.266Z,101896.07
2018-06-25T23:10:24.234Z,101892.86
2018-06-25T23:12:50.230Z,101893.81
2018-06-25T23:15:16.212Z,101891.76
2018-06-25T23:17:42.244Z,101891.76
2018-06-25T23:20:08.291Z,101900.04
2018-06-25T23:22:34.244Z,101896.83
2018-06-25T23:25:00.218Z,101901.13
2018-06-25T23:27:26.262Z,101895.12
2018-06-25T23:29:52.234Z,101900.41
2018-06-25T23:32:18.217Z,101898.37
2018-06-25T23:34:44.202Z,101895.12
2018-06-25T23:37:10.215Z,101893.80
2018-06-25T23:39:36.193Z,101887.03
2018-06-25T23:42:02.160Z,101893.64
2018-06-25T23:44:28.145Z,101891.48
2018-06-25T23:46:54.094Z,101890.70
2018-06-25T23:49:20.057Z,101894.41
2018-06-25T23:51:46.041Z,101897.44
2018-06-25T23:54:12.036Z,101893.20
2018-06-25T23:56:38.023Z,101894.67
2018-06-25T23:59:04.021Z,101891.05
